sensor_id;sensor_type;location;lat;lon;timestamp;temperature;humidity
35240;DHT22;21376;50.954;4.716;2023-03-14T00:00:37;11.50;99.90
35240;DHT22;21376;50.954;4.716;2023-03-14T00:03:12;11.40;99.90
35240;DHT22;21376;50.954;4.716;2023-03-14T00:05:43;11.70;99.90
35240;DHT22;21376;50.954;4.716;2023-03-14T00:08:24;11.60;99.90
35240;DHT22;21376;50.954;4.716;2023-03-14T00:10:52;11.60;99.90
35240;DHT22;21376;50.954;4.716;2023-03-14T00:13:19;11.70;99.90
35240;DHT22;21376;50.954;4.716;2023-03-14T00:15:52;11.60;99.90
35240;DHT22;21376;50.954;4.716;2023-03-14T00:18:22;11.80;99.90
35240;DHT22;21376;50.954;4.716;2023-03-14T00:20:59;11.60;99.90
35240;DHT22;21376;50.954;4.716;2023-03-14T00:23:27;11.60;99.90
35240;DHT22;21376;50.954;4.716;2023-03-14T00:26:12;11.70;99.90
35240;DHT22;21376;50.954;4.716;2023-03-14T00:28:43;11.60;99.90
35240;DHT22;21376;50.954;4.716;2023-03-14T00:31:15;11.40;99.90
35240;DHT22;21376;50.954;4.716;2023-03-14T00:33:47;11.30;99.90
35240;DHT22;21376;50.954;4.716;2023-03-14T00:36:19;11.50;99.90
35240;DHT22;21376;50.954;4.716;2023-03-14T00:38:50;11.50;99.90
35240;DHT22;21376;50.954;4.716;2023-03-14T00:41:21;11.50;99.90
35240;DHT22;21376;50.954;4.716;2023-03-14T00:43:57;11.50;99.90
35240;DHT22;21376;50.954;4.716;2023-03-14T00:46:28;11.60;99.90
35240;DHT22;21376;50.954;4.716;2023-03-14T00:48:57;11.70;99.90
35240;DHT22;21376;50.954;4.716;2023-03-14T00:51:29;11.80;99.90
35240;DHT22;21376;50.954;4.716;2023-03-14T00:53:57;11.70;99.90
35240;DHT22;21376;50.954;4.716;2023-03-14T00:56:25;11.60;99.90
35240;DHT22;21376;50.954;4.716;2023-03-14T00:58:57;11.50;99.90
35240;DHT22;21376;50.954;4.716;2023-03-14T01:01:25;11.60;99.90
35240;DHT22;21376;50.954;4.716;2023-03-14T01:03:52;11.50;99.90
35240;DHT22;21376;50.954;4.716;2023-03-14T01:06:27;11.40;99.90
35240;DHT22;21376;50.954;4.716;2023-03-14T01:08:59;11.40;99.90
35240;DHT22;21376;50.954;4.716;2023-03-14T01:11:36;11.40;99.90
35240;DHT22;21376;50.954;4.716;2023-03-14T01:14:24;11.40;99.90
35240;DHT22;21376;50.954;4.716;2023-03-14T01:16:56;11.20;99.90
35240;DHT22;21376;50.954;4.716;2023-03-14T02:07:58;10.90;99.90
35240;DHT22;21376;50.954;4.716;2023-03-14T02:10:33;11.00;99.90
35240;DHT22;21376;50.954;4.716;2023-03-14T02:13:03;11.00;99.90
35240;DHT22;21376;50.954;4.716;2023-03-14T02:15:32;10.70;99.90
35240;DHT22;21376;50.954;4.716;2023-03-14T02:18:08;10.80;99.90
35240;DHT22;21376;50.954;4.716;2023-03-14T02:23:27;10.80;99.90
35240;DHT22;21376;50.954;4.716;2023-03-14T02:26:06;10.70;99.90
35240;DHT22;21376;50.954;4.716;2023-03-14T02:31:18;10.60;99.90
35240;DHT22;21376;50.954;4.716;2023-03-14T02:33:51;10.70;99.90
35240;DHT22;21376;50.954;4.716;2023-03-14T02:36:20;10.20;99.90
35240;DHT22;21376;50.954;4.716;2023-03-14T02:39:11;10.30;99.90
35240;DHT22;21376;50.954;4.716;2023-03-14T02:41:39;10.10;99.90
35240;DHT22;21376;50.954;4.716;2023-03-14T02:44:13;9.90;99.90
35240;DHT22;21376;50.954;4.716;2023-03-14T02:46:40;9.80;99.90
35240;DHT22;21376;50.954;4.716;2023-03-14T02:49:09;9.60;99.90
35240;DHT22;21376;50.954;4.716;2023-03-14T02:51:39;9.60;99.90
35240;DHT22;21376;50.954;4.716;2023-03-14T02:54:07;9.40;99.90
35240;DHT22;21376;50.954;4.716;2023-03-14T02:56:38;9.40;99.90
35240;DHT22;21376;50.954;4.716;2023-03-14T02:59:10;9.20;99.90
35240;DHT22;21376;50.954;4.716;2023-03-14T03:01:35;9.20;99.90
35240;DHT22;21376;50.954;4.716;2023-03-14T03:04:03;9.10;99.90
35240;DHT22;21376;50.954;4.716;2023-03-14T03:06:32;9.20;99.90
35240;DHT22;21376;50.954;4.716;2023-03-14T03:08:58;9.30;99.90
35240;DHT22;21376;50.954;4.716;2023-03-14T03:11:26;9.30;99.90
35240;DHT22;21376;50.954;4.716;2023-03-14T03:13:55;9.10;99.90
35240;DHT22;21376;50.954;4.716;2023-03-14T03:16:29;9.10;99.90
35240;DHT22;21376;50.954;4.716;2023-03-14T03:18:55;9.00;99.90
35240;DHT22;21376;50.954;4.716;2023-03-14T03:21:21;8.70;99.90
35240;DHT22;21376;50.954;4.716;2023-03-14T03:23:53;8.90;99.90
35240;DHT22;21376;50.954;4.716;2023-03-14T03:26:22;9.10;99.90
35240;DHT22;21376;50.954;4.716;2023-03-14T03:28:50;8.90;99.90
35240;DHT22;21376;50.954;4.716;2023-03-14T03:31:17;9.00;99.90
35240;DHT22;21376;50.954;4.716;2023-03-14T03:33:43;9.10;99.90
35240;DHT22;21376;50.954;4.716;2023-03-14T03:36:09;9.10;99.90
35240;DHT22;21376;50.954;4.716;2023-03-14T03:38:37;9.10;99.90
35240;DHT22;21376;50.954;4.716;2023-03-14T03:41:06;9.10;99.90
35240;DHT22;21376;50.954;4.716;2023-03-14T03:43:35;9.00;99.90
35240;DHT22;21376;50.954;4.716;2023-03-14T03:46:05;9.10;99.90
35240;DHT22;21376;50.954;4.716;2023-03-14T03:48:32;9.20;99.90
35240;DHT22;21376;50.954;4.716;2023-03-14T03:51:00;9.30;99.90
35240;DHT22;21376;50.954;4.716;2023-03-14T03:53:26;9.40;99.90
35240;DHT22;21376;50.954;4.716;2023-03-14T03:55:52;9.40;99.90
35240;DHT22;21376;50.954;4.716;2023-03-14T03:58:18;9.40;99.90
35240;DHT22;21376;50.954;4.716;2023-03-14T04:00:45;9.40;99.90
35240;DHT22;21376;50.954;4.716;2023-03-14T04:03:14;9.40;99.90
35240;DHT22;21376;50.954;4.716;2023-03-14T04:05:41;9.40;99.90
35240;DHT22;21376;50.954;4.716;2023-03-14T04:08:07;9.20;99.90
35240;DHT22;21376;50.954;4.716;2023-03-14T04:10:35;9.20;99.90
35240;DHT22;21376;50.954;4.716;2023-03-14T04:13:05;9.30;99.90
35240;DHT22;21376;50.954;4.716;2023-03-14T04:15:47;9.30;99.90
35240;DHT22;21376;50.954;4.716;2023-03-14T04:18:16;9.40;99.90
35240;DHT22;21376;50.954;4.716;2023-03-14T04:20:44;9.40;99.90
35240;DHT22;21376;50.954;4.716;2023-03-14T04:23:10;9.50;99.90
35240;DHT22;21376;50.954;4.716;2023-03-14T04:25:38;9.70;99.90
35240;DHT22;21376;50.954;4.716;2023-03-14T04:28:06;9.50;99.90
35240;DHT22;21376;50.954;4.716;2023-03-14T04:30:35;9.50;99.90
35240;DHT22;21376;50.954;4.716;2023-03-14T04:33:03;9.60;99.90
35240;DHT22;21376;50.954;4.716;2023-03-14T04:35:34;9.60;99.90
35240;DHT22;21376;50.954;4.716;2023-03-14T04:38:00;9.70;99.90
35240;DHT22;21376;50.954;4.716;2023-03-14T04:40:32;9.70;99.90
35240;DHT22;21376;50.954;4.716;2023-03-14T04:43:00;9.70;99.90
35240;DHT22;21376;50.954;4.716;2023-03-14T04:45:26;9.70;99.90
35240;DHT22;21376;50.954;4.716;2023-03-14T04:47:52;9.80;99.90
35240;DHT22;21376;50.954;4.716;2023-03-14T04:50:18;9.70;99.90
35240;DHT22;21376;50.954;4.716;2023-03-14T04:52:45;9.80;99.90
35240;DHT22;21376;50.954;4.716;2023-03-14T04:55:11;9.90;99.90
35240;DHT22;21376;50.954;4.716;2023-03-14T04:57:37;10.10;99.90
35240;DHT22;21376;50.954;4.716;2023-03-14T05:00:07;9.90;99.90
35240;DHT22;21376;50.954;4.716;2023-03-14T05:02:34;9.80;99.90
35240;DHT22;21376;50.954;4.716;2023-03-14T05:05:00;9.80;99.90
35240;DHT22;21376;50.954;4.716;2023-03-14T05:07:29;9.90;99.90
35240;DHT22;21376;50.954;4.716;2023-03-14T05:09:56;10.00;99.90
35240;DHT22;21376;50.954;4.716;2023-03-14T05:12:23;9.90;99.90
35240;DHT22;21376;50.954;4.716;2023-03-14T05:14:53;10.00;99.90
35240;DHT22;21376;50.954;4.716;2023-03-14T05:17:19;9.90;99.90
35240;DHT22;21376;50.954;4.716;2023-03-14T05:19:48;10.00;99.90
35240;DHT22;21376;50.954;4.716;2023-03-14T05:22:14;10.00;99.90
35240;DHT22;21376;50.954;4.716;2023-03-14T05:24:40;10.00;99.90
35240;DHT22;21376;50.954;4.716;2023-03-14T05:27:06;10.10;99.90
35240;DHT22;21376;50.954;4.716;2023-03-14T05:29:34;10.20;99.90
35240;DHT22;21376;50.954;4.716;2023-03-14T05:32:00;10.20;99.90
35240;DHT22;21376;50.954;4.716;2023-03-14T05:34:27;10.30;99.90
35240;DHT22;21376;50.954;4.716;2023-03-14T05:37:00;10.30;99.90
35240;DHT22;21376;50.954;4.716;2023-03-14T05:39:27;10.30;99.90
35240;DHT22;21376;50.954;4.716;2023-03-14T05:41:53;10.30;99.90
35240;DHT22;21376;50.954;4.716;2023-03-14T05:44:21;10.40;99.90
35240;DHT22;21376;50.954;4.716;2023-03-14T05:46:48;10.30;99.90
35240;DHT22;21376;50.954;4.716;2023-03-14T05:49:17;10.40;99.90
35240;DHT22;21376;50.954;4.716;2023-03-14T05:51:44;10.40;99.90
35240;DHT22;21376;50.954;4.716;2023-03-14T05:54:13;10.40;99.90
35240;DHT22;21376;50.954;4.716;2023-03-14T05:56:44;10.40;99.90
35240;DHT22;21376;50.954;4.716;2023-03-14T05:59:15;10.40;99.90
35240;DHT22;21376;50.954;4.716;2023-03-14T06:01:42;10.30;99.90
35240;DHT22;21376;50.954;4.716;2023-03-14T06:04:14;10.40;99.90
35240;DHT22;21376;50.954;4.716;2023-03-14T06:06:41;10.40;99.90
35240;DHT22;21376;50.954;4.716;2023-03-14T06:09:15;10.40;99.90
35240;DHT22;21376;50.954;4.716;2023-03-14T06:11:41;10.40;99.90
35240;DHT22;21376;50.954;4.716;2023-03-14T06:14:07;10.60;99.90
35240;DHT22;21376;50.954;4.716;2023-03-14T06:16:36;10.50;99.90
35240;DHT22;21376;50.954;4.716;2023-03-14T06:19:03;10.50;99.90
35240;DHT22;21376;50.954;4.716;2023-03-14T06:21:31;10.40;99.90
35240;DHT22;21376;50.954;4.716;2023-03-14T06:23:57;10.50;99.90
35240;DHT22;21376;50.954;4.716;2023-03-14T06:26:22;10.50;99.90
35240;DHT22;21376;50.954;4.716;2023-03-14T06:28:51;10.50;99.90
35240;DHT22;21376;50.954;4.716;2023-03-14T06:31:17;10.40;99.90
35240;DHT22;21376;50.954;4.716;2023-03-14T06:33:50;10.30;99.90
35240;DHT22;21376;50.954;4.716;2023-03-14T06:36:18;10.40;99.90
35240;DHT22;21376;50.954;4.716;2023-03-14T06:38:46;10.40;99.90
35240;DHT22;21376;50.954;4.716;2023-03-14T06:41:11;10.40;99.90
35240;DHT22;21376;50.954;4.716;2023-03-14T06:43:40;10.60;99.90
35240;DHT22;21376;50.954;4.716;2023-03-14T06:46:06;10.50;99.90
35240;DHT22;21376;50.954;4.716;2023-03-14T06:48:35;10.50;99.90
35240;DHT22;21376;50.954;4.716;2023-03-14T06:51:04;10.40;99.90
35240;DHT22;21376;50.954;4.716;2023-03-14T06:53:39;10.40;99.90
35240;DHT22;21376;50.954;4.716;2023-03-14T06:56:07;10.40;99.90
35240;DHT22;21376;50.954;4.716;2023-03-14T06:58:36;10.40;99.90
35240;DHT22;21376;50.954;4.716;2023-03-14T07:01:17;10.40;99.90
35240;DHT22;21376;50.954;4.716;2023-03-14T07:03:48;10.30;99.90
35240;DHT22;21376;50.954;4.716;2023-03-14T07:06:17;10.30;99.90
35240;DHT22;21376;50.954;4.716;2023-03-14T07:08:54;10.30;99.90
35240;DHT22;21376;50.954;4.716;2023-03-14T07:11:26;9.90;99.90
35240;DHT22;21376;50.954;4.716;2023-03-14T07:13:52;9.50;99.90
35240;DHT22;21376;50.954;4.716;2023-03-14T07:16:21;8.80;99.90
35240;DHT22;21376;50.954;4.716;2023-03-14T07:18:50;8.80;99.90
35240;DHT22;21376;50.954;4.716;2023-03-14T07:21:19;8.60;99.90
35240;DHT22;21376;50.954;4.716;2023-03-14T07:23:45;8.30;99.90
35240;DHT22;21376;50.954;4.716;2023-03-14T07:26:13;8.30;99.90
35240;DHT22;21376;50.954;4.716;2023-03-14T07:28:40;8.20;99.90
35240;DHT22;21376;50.954;4.716;2023-03-14T07:31:07;8.10;99.90
35240;DHT22;21376;50.954;4.716;2023-03-14T07:33:37;8.00;99.90
35240;DHT22;21376;50.954;4.716;2023-03-14T07:36:03;7.70;99.90
35240;DHT22;21376;50.954;4.716;2023-03-14T07:38:30;7.70;99.90
35240;DHT22;21376;50.954;4.716;2023-03-14T07:41:32;7.50;99.90
35240;DHT22;21376;50.954;4.716;2023-03-14T07:44:01;7.50;99.90
35240;DHT22;21376;50.954;4.716;2023-03-14T07:46:30;7.50;99.90
35240;DHT22;21376;50.954;4.716;2023-03-14T07:49:10;7.70;99.90
35240;DHT22;21376;50.954;4.716;2023-03-14T07:51:35;7.40;99.90
35240;DHT22;21376;50.954;4.716;2023-03-14T07:54:03;7.50;99.90
35240;DHT22;21376;50.954;4.716;2023-03-14T07:56:37;7.50;99.90
35240;DHT22;21376;50.954;4.716;2023-03-14T07:59:06;7.50;99.90
35240;DHT22;21376;50.954;4.716;2023-03-14T08:01:32;7.50;99.90
35240;DHT22;21376;50.954;4.716;2023-03-14T08:03:58;7.60;99.90
35240;DHT22;21376;50.954;4.716;2023-03-14T08:06:26;7.70;99.90
35240;DHT22;21376;50.954;4.716;2023-03-14T08:08:58;7.50;99.90
35240;DHT22;21376;50.954;4.716;2023-03-14T08:11:27;7.70;99.90
35240;DHT22;21376;50.954;4.716;2023-03-14T08:13:55;7.80;99.90
35240;DHT22;21376;50.954;4.716;2023-03-14T08:16:23;7.90;99.90
35240;DHT22;21376;50.954;4.716;2023-03-14T08:19:00;8.00;99.90
35240;DHT22;21376;50.954;4.716;2023-03-14T08:21:28;8.00;99.90
35240;DHT22;21376;50.954;4.716;2023-03-14T08:23:55;8.20;99.90
35240;DHT22;21376;50.954;4.716;2023-03-14T08:26:23;8.30;99.90
35240;DHT22;21376;50.954;4.716;2023-03-14T08:28:53;8.40;99.90
35240;DHT22;21376;50.954;4.716;2023-03-14T08:31:19;8.20;99.90
35240;DHT22;21376;50.954;4.716;2023-03-14T08:33:44;8.00;99.90
35240;DHT22;21376;50.954;4.716;2023-03-14T08:36:16;7.90;99.90
35240;DHT22;21376;50.954;4.716;2023-03-14T08:38:42;7.80;99.90
35240;DHT22;21376;50.954;4.716;2023-03-14T08:41:10;7.70;99.90
35240;DHT22;21376;50.954;4.716;2023-03-14T08:43:37;7.90;99.90
35240;DHT22;21376;50.954;4.716;2023-03-14T08:46:06;7.70;99.90
35240;DHT22;21376;50.954;4.716;2023-03-14T08:48:33;7.60;99.90
35240;DHT22;21376;50.954;4.716;2023-03-14T08:51:14;7.50;99.90
35240;DHT22;21376;50.954;4.716;2023-03-14T08:53:40;7.60;99.90
35240;DHT22;21376;50.954;4.716;2023-03-14T08:56:22;7.80;99.90
35240;DHT22;21376;50.954;4.716;2023-03-14T08:58:49;7.90;99.90
35240;DHT22;21376;50.954;4.716;2023-03-14T09:01:17;8.10;99.90
35240;DHT22;21376;50.954;4.716;2023-03-14T09:03:44;8.20;99.90
35240;DHT22;21376;50.954;4.716;2023-03-14T09:06:13;8.30;99.90
35240;DHT22;21376;50.954;4.716;2023-03-14T09:08:40;8.30;99.90
35240;DHT22;21376;50.954;4.716;2023-03-14T09:11:09;8.20;99.90
35240;DHT22;21376;50.954;4.716;2023-03-14T09:13:35;8.10;99.90
35240;DHT22;21376;50.954;4.716;2023-03-14T09:16:03;8.40;99.90
35240;DHT22;21376;50.954;4.716;2023-03-14T09:18:32;8.80;99.90
35240;DHT22;21376;50.954;4.716;2023-03-14T09:21:00;9.00;99.90
35240;DHT22;21376;50.954;4.716;2023-03-14T09:23:29;9.00;99.90
35240;DHT22;21376;50.954;4.716;2023-03-14T09:25:58;9.00;99.90
35240;DHT22;21376;50.954;4.716;2023-03-14T09:28:28;9.20;99.90
35240;DHT22;21376;50.954;4.716;2023-03-14T09:30:56;8.90;99.90
35240;DHT22;21376;50.954;4.716;2023-03-14T09:33:46;8.60;99.90
35240;DHT22;21376;50.954;4.716;2023-03-14T09:36:12;8.60;99.90
35240;DHT22;21376;50.954;4.716;2023-03-14T09:38:41;8.40;99.90
35240;DHT22;21376;50.954;4.716;2023-03-14T09:41:17;8.30;99.90
35240;DHT22;21376;50.954;4.716;2023-03-14T09:43:48;8.20;99.90
35240;DHT22;21376;50.954;4.716;2023-03-14T09:46:19;8.20;99.90
35240;DHT22;21376;50.954;4.716;2023-03-14T09:48:49;8.00;99.90
35240;DHT22;21376;50.954;4.716;2023-03-14T09:51:18;8.00;99.90
35240;DHT22;21376;50.954;4.716;2023-03-14T09:54:04;8.10;99.90
35240;DHT22;21376;50.954;4.716;2023-03-14T09:56:32;8.30;99.90
35240;DHT22;21376;50.954;4.716;2023-03-14T09:59:00;8.60;99.90
35240;DHT22;21376;50.954;4.716;2023-03-14T10:01:32;8.80;99.90
35240;DHT22;21376;50.954;4.716;2023-03-14T10:04:06;8.70;99.90
35240;DHT22;21376;50.954;4.716;2023-03-14T10:06:32;8.50;99.90
35240;DHT22;21376;50.954;4.716;2023-03-14T10:09:01;8.50;99.90
35240;DHT22;21376;50.954;4.716;2023-03-14T10:11:33;8.40;99.90
35240;DHT22;21376;50.954;4.716;2023-03-14T10:14:35;8.30;99.90
35240;DHT22;21376;50.954;4.716;2023-03-14T10:17:12;8.00;99.90
35240;DHT22;21376;50.954;4.716;2023-03-14T10:20:01;7.70;99.90
35240;DHT22;21376;50.954;4.716;2023-03-14T10:22:32;7.60;99.90
35240;DHT22;21376;50.954;4.716;2023-03-14T10:25:06;7.90;99.90
35240;DHT22;21376;50.954;4.716;2023-03-14T10:27:51;7.90;99.90
35240;DHT22;21376;50.954;4.716;2023-03-14T10:33:30;8.00;99.90
35240;DHT22;21376;50.954;4.716;2023-03-14T10:35:59;7.90;99.90
35240;DHT22;21376;50.954;4.716;2023-03-14T10:38:30;7.60;99.90
35240;DHT22;21376;50.954;4.716;2023-03-14T10:40:59;7.50;99.90
35240;DHT22;21376;50.954;4.716;2023-03-14T10:43:33;7.50;99.90
35240;DHT22;21376;50.954;4.716;2023-03-14T10:46:14;7.60;99.90
35240;DHT22;21376;50.954;4.716;2023-03-14T10:48:48;7.70;99.90
35240;DHT22;21376;50.954;4.716;2023-03-14T10:51:26;7.50;99.90
35240;DHT22;21376;50.954;4.716;2023-03-14T10:54:12;7.30;99.90
35240;DHT22;21376;50.954;4.716;2023-03-14T10:56:41;7.10;99.90
35240;DHT22;21376;50.954;4.716;2023-03-14T10:59:13;7.00;99.90
35240;DHT22;21376;50.954;4.716;2023-03-14T11:02:12;7.10;99.90
35240;DHT22;21376;50.954;4.716;2023-03-14T11:05:01;7.00;99.90
35240;DHT22;21376;50.954;4.716;2023-03-14T11:07:40;6.80;99.90
35240;DHT22;21376;50.954;4.716;2023-03-14T11:27:22;6.20;99.90
35240;DHT22;21376;50.954;4.716;2023-03-14T11:29:55;6.40;99.90
35240;DHT22;21376;50.954;4.716;2023-03-14T11:32:45;6.60;99.90
35240;DHT22;21376;50.954;4.716;2023-03-14T11:35:37;6.90;99.90
35240;DHT22;21376;50.954;4.716;2023-03-14T11:52:56;9.30;99.90
35240;DHT22;21376;50.954;4.716;2023-03-14T11:55:24;9.70;99.90
35240;DHT22;21376;50.954;4.716;2023-03-14T11:57:55;9.70;99.90
35240;DHT22;21376;50.954;4.716;2023-03-14T12:00:24;9.60;99.90
35240;DHT22;21376;50.954;4.716;2023-03-14T12:03:23;9.20;99.90
35240;DHT22;21376;50.954;4.716;2023-03-14T12:06:09;8.90;99.90
35240;DHT22;21376;50.954;4.716;2023-03-14T12:08:46;8.40;99.90
35240;DHT22;21376;50.954;4.716;2023-03-14T12:11:43;8.30;99.90
35240;DHT22;21376;50.954;4.716;2023-03-14T12:14:32;8.30;99.90
35240;DHT22;21376;50.954;4.716;2023-03-14T12:17:23;8.20;99.90
35240;DHT22;21376;50.954;4.716;2023-03-14T12:20:19;8.10;99.90
35240;DHT22;21376;50.954;4.716;2023-03-14T12:22:57;8.00;99.90
35240;DHT22;21376;50.954;4.716;2023-03-14T12:25:30;8.00;99.90
35240;DHT22;21376;50.954;4.716;2023-03-14T12:28:16;7.80;99.90
35240;DHT22;21376;50.954;4.716;2023-03-14T12:30:46;7.40;99.90
35240;DHT22;21376;50.954;4.716;2023-03-14T12:33:26;6.90;99.90
35240;DHT22;21376;50.954;4.716;2023-03-14T12:36:00;6.60;99.90
35240;DHT22;21376;50.954;4.716;2023-03-14T12:38:47;6.70;99.90
35240;DHT22;21376;50.954;4.716;2023-03-14T12:43:52;6.30;99.90
35240;DHT22;21376;50.954;4.716;2023-03-14T12:46:25;6.50;99.90
35240;DHT22;21376;50.954;4.716;2023-03-14T12:51:40;6.90;99.90
35240;DHT22;21376;50.954;4.716;2023-03-14T13:00:16;7.40;99.90
35240;DHT22;21376;50.954;4.716;2023-03-14T13:02:43;7.70;99.90
35240;DHT22;21376;50.954;4.716;2023-03-14T13:05:23;8.10;99.90
35240;DHT22;21376;50.954;4.716;2023-03-14T13:10:25;8.20;99.90
35240;DHT22;21376;50.954;4.716;2023-03-14T13:15:42;8.50;99.90
35240;DHT22;21376;50.954;4.716;2023-03-14T13:18:16;8.60;99.90
35240;DHT22;21376;50.954;4.716;2023-03-14T13:20:48;8.60;99.90
35240;DHT22;21376;50.954;4.716;2023-03-14T13:23:33;8.60;99.90
35240;DHT22;21376;50.954;4.716;2023-03-14T13:26:01;8.30;99.90
35240;DHT22;21376;50.954;4.716;2023-03-14T13:28:34;7.80;99.90
35240;DHT22;21376;50.954;4.716;2023-03-14T13:31:34;7.50;99.90
35240;DHT22;21376;50.954;4.716;2023-03-14T13:34:18;6.70;99.90
35240;DHT22;21376;50.954;4.716;2023-03-14T13:36:45;6.10;99.90
35240;DHT22;21376;50.954;4.716;2023-03-14T13:39:14;6.00;99.90
35240;DHT22;21376;50.954;4.716;2023-03-14T13:42:13;5.90;99.90
35240;DHT22;21376;50.954;4.716;2023-03-14T13:44:42;5.40;99.90
35240;DHT22;21376;50.954;4.716;2023-03-14T13:47:20;6.00;99.90
35240;DHT22;21376;50.954;4.716;2023-03-14T13:49:49;6.20;99.90
35240;DHT22;21376;50.954;4.716;2023-03-14T13:52:37;6.50;99.90
35240;DHT22;21376;50.954;4.716;2023-03-14T13:55:16;6.70;99.90
35240;DHT22;21376;50.954;4.716;2023-03-14T13:57:52;6.90;99.90
35240;DHT22;21376;50.954;4.716;2023-03-14T14:00:28;7.20;99.90
35240;DHT22;21376;50.954;4.716;2023-03-14T14:02:59;7.40;99.90
35240;DHT22;21376;50.954;4.716;2023-03-14T14:05:32;7.50;99.90
35240;DHT22;21376;50.954;4.716;2023-03-14T14:10:32;7.50;99.90
35240;DHT22;21376;50.954;4.716;2023-03-14T14:13:03;7.60;99.90
35240;DHT22;21376;50.954;4.716;2023-03-14T14:15:37;7.90;99.90
35240;DHT22;21376;50.954;4.716;2023-03-14T14:18:28;8.10;99.90
35240;DHT22;21376;50.954;4.716;2023-03-14T14:21:01;8.40;99.90
35240;DHT22;21376;50.954;4.716;2023-03-14T14:23:31;8.60;99.90
35240;DHT22;21376;50.954;4.716;2023-03-14T14:26:00;8.70;99.90
35240;DHT22;21376;50.954;4.716;2023-03-14T14:28:34;8.80;99.90
35240;DHT22;21376;50.954;4.716;2023-03-14T14:31:16;8.90;99.90
35240;DHT22;21376;50.954;4.716;2023-03-14T14:41:02;9.00;99.90
35240;DHT22;21376;50.954;4.716;2023-03-14T14:43:44;9.00;99.90
35240;DHT22;21376;50.954;4.716;2023-03-14T14:46:17;9.10;99.90
35240;DHT22;21376;50.954;4.716;2023-03-14T14:48:44;9.10;99.90
35240;DHT22;21376;50.954;4.716;2023-03-14T14:51:11;9.10;99.90
35240;DHT22;21376;50.954;4.716;2023-03-14T14:53:47;8.80;99.90
35240;DHT22;21376;50.954;4.716;2023-03-14T14:56:26;8.70;99.90
35240;DHT22;21376;50.954;4.716;2023-03-14T14:58:59;8.20;99.90
35240;DHT22;21376;50.954;4.716;2023-03-14T15:01:36;8.00;99.90
35240;DHT22;21376;50.954;4.716;2023-03-14T15:04:12;7.40;99.90
35240;DHT22;21376;50.954;4.716;2023-03-14T15:06:44;7.40;99.90
35240;DHT22;21376;50.954;4.716;2023-03-14T15:09:13;7.00;99.90
35240;DHT22;21376;50.954;4.716;2023-03-14T15:11:44;7.00;99.90
35240;DHT22;21376;50.954;4.716;2023-03-14T15:14:10;7.00;99.90
35240;DHT22;21376;50.954;4.716;2023-03-14T15:16:38;6.90;99.90
35240;DHT22;21376;50.954;4.716;2023-03-14T15:19:23;6.80;99.90
35240;DHT22;21376;50.954;4.716;2023-03-14T15:21:52;7.20;99.90
35240;DHT22;21376;50.954;4.716;2023-03-14T15:24:21;7.20;99.90
35240;DHT22;21376;50.954;4.716;2023-03-14T15:26:49;7.50;99.90
35240;DHT22;21376;50.954;4.716;2023-03-14T15:29:16;7.80;99.90
35240;DHT22;21376;50.954;4.716;2023-03-14T15:31:51;7.80;99.90
35240;DHT22;21376;50.954;4.716;2023-03-14T15:34:51;8.00;99.90
35240;DHT22;21376;50.954;4.716;2023-03-14T15:37:25;8.00;99.90
35240;DHT22;21376;50.954;4.716;2023-03-14T15:40:05;8.00;99.90
35240;DHT22;21376;50.954;4.716;2023-03-14T15:42:50;7.90;99.90
35240;DHT22;21376;50.954;4.716;2023-03-14T15:45:26;7.90;99.90
35240;DHT22;21376;50.954;4.716;2023-03-14T15:50:59;8.00;99.90
35240;DHT22;21376;50.954;4.716;2023-03-14T15:53:29;8.20;99.90
35240;DHT22;21376;50.954;4.716;2023-03-14T15:55:58;8.10;99.90
35240;DHT22;21376;50.954;4.716;2023-03-14T15:58:24;7.90;99.90
35240;DHT22;21376;50.954;4.716;2023-03-14T16:00:53;8.00;99.90
35240;DHT22;21376;50.954;4.716;2023-03-14T16:03:20;8.00;99.90
35240;DHT22;21376;50.954;4.716;2023-03-14T16:05:48;7.80;99.90
35240;DHT22;21376;50.954;4.716;2023-03-14T16:08:15;7.80;99.90
35240;DHT22;21376;50.954;4.716;2023-03-14T16:10:45;7.70;99.90
35240;DHT22;21376;50.954;4.716;2023-03-14T16:13:15;7.60;99.90
35240;DHT22;21376;50.954;4.716;2023-03-14T16:15:41;7.60;99.90
35240;DHT22;21376;50.954;4.716;2023-03-14T16:18:13;7.50;99.90
35240;DHT22;21376;50.954;4.716;2023-03-14T16:20:42;7.40;99.90
35240;DHT22;21376;50.954;4.716;2023-03-14T16:23:11;7.30;99.90
35240;DHT22;21376;50.954;4.716;2023-03-14T16:25:40;7.30;99.90
35240;DHT22;21376;50.954;4.716;2023-03-14T16:28:12;7.30;99.90
35240;DHT22;21376;50.954;4.716;2023-03-14T16:31:06;7.40;99.90
35240;DHT22;21376;50.954;4.716;2023-03-14T16:33:36;7.30;99.90
35240;DHT22;21376;50.954;4.716;2023-03-14T16:36:07;7.10;99.90
35240;DHT22;21376;50.954;4.716;2023-03-14T16:38:39;6.90;99.90
35240;DHT22;21376;50.954;4.716;2023-03-14T16:41:08;6.90;99.90
35240;DHT22;21376;50.954;4.716;2023-03-14T16:43:42;6.80;99.90
35240;DHT22;21376;50.954;4.716;2023-03-14T16:46:19;7.00;99.90
35240;DHT22;21376;50.954;4.716;2023-03-14T16:48:50;7.00;99.90
35240;DHT22;21376;50.954;4.716;2023-03-14T16:51:20;7.10;99.90
35240;DHT22;21376;50.954;4.716;2023-03-14T16:53:46;7.00;99.90
35240;DHT22;21376;50.954;4.716;2023-03-14T16:56:15;7.00;99.90
35240;DHT22;21376;50.954;4.716;2023-03-14T16:58:41;7.00;99.90
35240;DHT22;21376;50.954;4.716;2023-03-14T17:01:09;7.00;99.90
35240;DHT22;21376;50.954;4.716;2023-03-14T17:03:40;7.00;99.90
35240;DHT22;21376;50.954;4.716;2023-03-14T17:06:06;6.90;99.90
35240;DHT22;21376;50.954;4.716;2023-03-14T17:08:35;6.90;99.90
35240;DHT22;21376;50.954;4.716;2023-03-14T17:11:04;6.80;99.90
35240;DHT22;21376;50.954;4.716;2023-03-14T17:13:38;6.90;99.90
35240;DHT22;21376;50.954;4.716;2023-03-14T17:16:07;6.80;99.90
35240;DHT22;21376;50.954;4.716;2023-03-14T17:18:36;6.90;99.90
35240;DHT22;21376;50.954;4.716;2023-03-14T17:21:06;7.10;99.90
35240;DHT22;21376;50.954;4.716;2023-03-14T17:23:39;6.90;99.90
35240;DHT22;21376;50.954;4.716;2023-03-14T17:26:06;6.80;99.90
35240;DHT22;21376;50.954;4.716;2023-03-14T17:28:35;6.80;99.90
35240;DHT22;21376;50.954;4.716;2023-03-14T17:31:06;6.70;99.90
35240;DHT22;21376;50.954;4.716;2023-03-14T17:33:35;6.70;99.90
35240;DHT22;21376;50.954;4.716;2023-03-14T17:36:03;6.80;99.90
35240;DHT22;21376;50.954;4.716;2023-03-14T17:38:35;6.50;99.90
35240;DHT22;21376;50.954;4.716;2023-03-14T17:41:07;6.50;99.90
35240;DHT22;21376;50.954;4.716;2023-03-14T17:43:38;6.50;99.90
35240;DHT22;21376;50.954;4.716;2023-03-14T17:46:24;6.50;99.90
35240;DHT22;21376;50.954;4.716;2023-03-14T17:48:53;6.30;99.90
35240;DHT22;21376;50.954;4.716;2023-03-14T17:51:21;6.50;99.90
35240;DHT22;21376;50.954;4.716;2023-03-14T17:53:50;6.20;99.90
35240;DHT22;21376;50.954;4.716;2023-03-14T17:56:16;6.20;99.90
35240;DHT22;21376;50.954;4.716;2023-03-14T17:58:43;6.10;99.90
35240;DHT22;21376;50.954;4.716;2023-03-14T18:01:45;6.10;99.90
35240;DHT22;21376;50.954;4.716;2023-03-14T18:04:17;5.90;99.90
35240;DHT22;21376;50.954;4.716;2023-03-14T18:06:49;5.80;99.90
35240;DHT22;21376;50.954;4.716;2023-03-14T18:09:18;5.70;99.90